sensor_id;sensor_type;location;lat;lon;timestamp;pressure;altitude;pressure_sealevel;temperature;humidity
42587;BME280;28216;53.362;-6.288;2023-01-30T00:01:33;102179.81;;;7.12;100.00
42587;BME280;28216;53.362;-6.288;2023-01-30T00:03:58;102169.16;;;7.02;100.00
42587;BME280;28216;53.362;-6.288;2023-01-30T00:06:24;102157.47;;;6.95;100.00
42587;BME280;28216;53.362;-6.288;2023-01-30T00:08:51;102160.28;;;6.92;100.00
42587;BME280;28216;53.362;-6.288;2023-01-30T00:11:19;102160.78;;;6.84;100.00
42587;BME280;28216;53.362;-6.288;2023-01-30T00:13:47;102161.19;;;6.78;100.00
42587;BME280;28216;53.362;-6.288;2023-01-30T00:16:14;102167.22;;;6.79;100.00
42587;BME280;28216;53.362;-6.288;2023-01-30T00:18:40;102164.63;;;6.79;100.00
42587;BME280;28216;53.362;-6.288;2023-01-30T00:21:07;102168.47;;;6.73;100.00
42587;BME280;28216;53.362;-6.288;2023-01-30T00:23:34;102165.13;;;6.71;100.00
42587;BME280;28216;53.362;-6.288;2023-01-30T00:26:01;102165.75;;;6.75;100.00
42587;BME280;28216;53.362;-6.288;2023-01-30T00:28:26;102163.88;;;6.77;100.00
42587;BME280;28216;53.362;-6.288;2023-01-30T00:30:53;102169.31;;;6.74;100.00
42587;BME280;28216;53.362;-6.288;2023-01-30T00:33:20;102170.03;;;6.76;100.00
42587;BME280;28216;53.362;-6.288;2023-01-30T00:35:48;102168.38;;;6.75;100.00
42587;BME280;28216;53.362;-6.288;2023-01-30T00:38:14;102168.91;;;6.80;100.00
42587;BME280;28216;53.362;-6.288;2023-01-30T00:40:40;102165.06;;;6.85;100.00
42587;BME280;28216;53.362;-6.288;2023-01-30T00:43:06;102181.53;;;6.86;100.00
42587;BME280;28216;53.362;-6.288;2023-01-30T00:45:53;102177.88;;;6.88;100.00
42587;BME280;28216;53.362;-6.288;2023-01-30T00:48:37;102175.72;;;6.95;100.00
42587;BME280;28216;53.362;-6.288;2023-01-30T00:51:03;102169.34;;;6.99;100.00
42587;BME280;28216;53.362;-6.288;2023-01-30T00:53:29;102173.00;;;6.96;100.00
42587;BME280;28216;53.362;-6.288;2023-01-30T00:55:55;102179.25;;;6.94;100.00
42587;BME280;28216;53.362;-6.288;2023-01-30T00:58:22;102173.22;;;6.93;100.00
42587;BME280;28216;53.362;-6.288;2023-01-30T01:00:48;102173.22;;;6.93;100.00
42587;BME280;28216;53.362;-6.288;2023-01-30T01:03:14;102168.28;;;6.89;100.00
42587;BME280;28216;53.362;-6.288;2023-01-30T01:05:39;102181.03;;;6.93;100.00
42587;BME280;28216;53.362;-6.288;2023-01-30T01:08:08;102178.31;;;6.95;100.00
42587;BME280;28216;53.362;-6.288;2023-01-30T01:10:34;102183.34;;;6.98;100.00
42587;BME280;28216;53.362;-6.288;2023-01-30T01:13:00;102175.31;;;7.01;100.00
42587;BME280;28216;53.362;-6.288;2023-01-30T01:15:26;102174.88;;;6.94;100.00
42587;BME280;28216;53.362;-6.288;2023-01-30T01:17:51;102180.81;;;6.96;100.00
42587;BME280;28216;53.362;-6.288;2023-01-30T01:20:18;102184.28;;;6.97;100.00
42587;BME280;28216;53.362;-6.288;2023-01-30T01:22:46;102184.38;;;6.95;100.00
42587;BME280;28216;53.362;-6.288;2023-01-30T01:25:14;102192.94;;;6.97;100.00
42587;BME280;28216;53.362;-6.288;2023-01-30T01:27:40;102192.72;;;7.00;100.00
42587;BME280;28216;53.362;-6.288;2023-01-30T01:30:06;102190.41;;;6.96;100.00
42587;BME280;28216;53.362;-6.288;2023-01-30T01:32:32;102181.66;;;6.97;100.00
42587;BME280;28216;53.362;-6.288;2023-01-30T01:35:03;102179.06;;;6.97;100.00
42587;BME280;28216;53.362;-6.288;2023-01-30T01:37:29;102180.81;;;6.96;100.00
42587;BME280;28216;53.362;-6.288;2023-01-30T01:39:57;102186.53;;;6.89;100.00
42587;BME280;28216;53.362;-6.288;2023-01-30T01:42:41;102188.81;;;6.81;100.00
42587;BME280;28216;53.362;-6.288;2023-01-30T01:48:01;102196.56;;;6.68;100.00
42587;BME280;28216;53.362;-6.288;2023-01-30T01:50:58;102200.41;;;6.62;100.00
42587;BME280;28216;53.362;-6.288;2023-01-30T01:53:31;102209.56;;;6.55;100.00
42587;BME280;28216;53.362;-6.288;2023-01-30T01:55:58;102198.59;;;6.50;100.00
42587;BME280;28216;53.362;-6.288;2023-01-30T01:58:38;102199.81;;;6.45;100.00
42587;BME280;28216;53.362;-6.288;2023-01-30T02:01:08;102203.53;;;6.41;100.00
42587;BME280;28216;53.362;-6.288;2023-01-30T02:03:36;102207.47;;;6.33;100.00
42587;BME280;28216;53.362;-6.288;2023-01-30T02:06:07;102215.47;;;6.30;100.00
42587;BME280;28216;53.362;-6.288;2023-01-30T02:08:37;102207.09;;;6.25;100.00
42587;BME280;28216;53.362;-6.288;2023-01-30T02:11:40;102208.13;;;6.23;100.00
42587;BME280;28216;53.362;-6.288;2023-01-30T02:14:03;102218.84;;;6.18;100.00
42587;BME280;28216;53.362;-6.288;2023-01-30T02:16:30;102220.81;;;6.15;100.00
42587;BME280;28216;53.362;-6.288;2023-01-30T02:18:55;102226.09;;;6.13;100.00
42587;BME280;28216;53.362;-6.288;2023-01-30T02:21:57;102215.41;;;6.18;100.00
42587;BME280;28216;53.362;-6.288;2023-01-30T02:39:36;102217.66;;;6.51;100.00
42587;BME280;28216;53.362;-6.288;2023-01-30T02:47:23;102222.72;;;6.66;100.00
42587;BME280;28216;53.362;-6.288;2023-01-30T02:50:15;102230.38;;;6.69;100.00
42587;BME280;28216;53.362;-6.288;2023-01-30T02:52:43;102220.84;;;6.68;100.00
42587;BME280;28216;53.362;-6.288;2023-01-30T02:55:18;102237.16;;;6.72;100.00
42587;BME280;28216;53.362;-6.288;2023-01-30T02:57:44;102236.34;;;6.72;100.00
42587;BME280;28216;53.362;-6.288;2023-01-30T03:00:10;102224.78;;;6.76;100.00
42587;BME280;28216;53.362;-6.288;2023-01-30T03:08:48;102227.81;;;6.82;100.00
42587;BME280;28216;53.362;-6.288;2023-01-30T03:11:16;102233.03;;;6.82;100.00
42587;BME280;28216;53.362;-6.288;2023-01-30T03:14:00;102232.75;;;6.87;100.00
42587;BME280;28216;53.362;-6.288;2023-01-30T03:16:35;102232.75;;;6.87;100.00
42587;BME280;28216;53.362;-6.288;2023-01-30T03:19:03;102245.03;;;6.85;100.00
42587;BME280;28216;53.362;-6.288;2023-01-30T03:21:31;102249.50;;;6.83;100.00
42587;BME280;28216;53.362;-6.288;2023-01-30T03:23:57;102245.03;;;6.85;100.00
42587;BME280;28216;53.362;-6.288;2023-01-30T03:26:26;102257.13;;;6.86;100.00
42587;BME280;28216;53.362;-6.288;2023-01-30T03:28:53;102256.19;;;6.87;100.00
42587;BME280;28216;53.362;-6.288;2023-01-30T03:31:19;102257.25;;;6.84;100.00
42587;BME280;28216;53.362;-6.288;2023-01-30T03:33:44;102257.88;;;6.88;100.00
42587;BME280;28216;53.362;-6.288;2023-01-30T03:36:10;102261.84;;;6.93;100.00
42587;BME280;28216;53.362;-6.288;2023-01-30T03:38:36;102262.69;;;6.94;100.00
42587;BME280;28216;53.362;-6.288;2023-01-30T03:41:02;102262.78;;;6.92;100.00
42587;BME280;28216;53.362;-6.288;2023-01-30T03:43:28;102261.84;;;6.93;100.00
42587;BME280;28216;53.362;-6.288;2023-01-30T03:45:54;102255.72;;;6.94;100.00
42587;BME280;28216;53.362;-6.288;2023-01-30T03:48:19;102261.56;;;6.98;100.00
42587;BME280;28216;53.362;-6.288;2023-01-30T03:50:45;102275.72;;;6.94;100.00
42587;BME280;28216;53.362;-6.288;2023-01-30T03:53:10;102263.53;;;6.94;100.00
42587;BME280;28216;53.362;-6.288;2023-01-30T03:55:36;102267.91;;;6.94;100.00
42587;BME280;28216;53.362;-6.288;2023-01-30T03:58:02;102272.69;;;6.87;100.00
42587;BME280;28216;53.362;-6.288;2023-01-30T04:00:27;102272.59;;;6.89;100.00
42587;BME280;28216;53.362;-6.288;2023-01-30T04:02:53;102283.00;;;6.89;100.00
42587;BME280;28216;53.362;-6.288;2023-01-30T04:05:22;102290.84;;;6.89;100.00
42587;BME280;28216;53.362;-6.288;2023-01-30T04:07:47;102295.75;;;6.93;100.00
42587;BME280;28216;53.362;-6.288;2023-01-30T04:10:13;102293.16;;;6.93;100.00
42587;BME280;28216;53.362;-6.288;2023-01-30T04:12:44;102291.56;;;6.91;100.00
42587;BME280;28216;53.362;-6.288;2023-01-30T04:15:10;102300.44;;;6.88;100.00
42587;BME280;28216;53.362;-6.288;2023-01-30T04:17:36;102305.75;;;6.87;100.00
42587;BME280;28216;53.362;-6.288;2023-01-30T04:20:01;102303.88;;;6.89;100.00
42587;BME280;28216;53.362;-6.288;2023-01-30T04:22:27;102298.66;;;6.89;100.00
42587;BME280;28216;53.362;-6.288;2023-01-30T04:24:53;102295.75;;;6.93;100.00
42587;BME280;28216;53.362;-6.288;2023-01-30T04:27:18;102284.69;;;6.90;100.00
42587;BME280;28216;53.362;-6.288;2023-01-30T04:29:44;102280.31;;;6.90;100.00
42587;BME280;28216;53.362;-6.288;2023-01-30T04:32:09;102280.69;;;6.84;100.00
42587;BME280;28216;53.362;-6.288;2023-01-30T04:34:34;102281.53;;;6.85;100.00
42587;BME280;28216;53.362;-6.288;2023-01-30T04:37:00;102281.72;;;6.82;100.00
42587;BME280;28216;53.362;-6.288;2023-01-30T04:39:25;102274.50;;;6.73;100.00
42587;BME280;28216;53.362;-6.288;2023-01-30T04:41:51;102269.09;;;6.61;100.00
42587;BME280;28216;53.362;-6.288;2023-01-30T04:44:17;102270.31;;;6.56;100.00
42587;BME280;28216;53.362;-6.288;2023-01-30T04:46:42;102282.16;;;6.47;100.00
42587;BME280;28216;53.362;-6.288;2023-01-30T04:49:11;102274.44;;;6.46;100.00
42587;BME280;28216;53.362;-6.288;2023-01-30T04:51:36;102291.19;;;6.42;100.00
42587;BME280;28216;53.362;-6.288;2023-01-30T04:54:02;102288.47;;;6.43;100.00
42587;BME280;28216;53.362;-6.288;2023-01-30T04:56:28;102284.13;;;6.44;100.00
42587;BME280;28216;53.362;-6.288;2023-01-30T04:58:54;102289.22;;;6.45;100.00
42587;BME280;28216;53.362;-6.288;2023-01-30T05:01:31;102283.00;;;6.48;100.00
42587;BME280;28216;53.362;-6.288;2023-01-30T05:03:57;102271.00;;;6.45;100.00
42587;BME280;28216;53.362;-6.288;2023-01-30T05:06:23;102283.09;;;6.46;100.00
42587;BME280;28216;53.362;-6.288;2023-01-30T05:08:51;102281.41;;;6.45;100.00
42587;BME280;28216;53.362;-6.288;2023-01-30T05:11:17;102290.91;;;6.46;100.00
42587;BME280;28216;53.362;-6.288;2023-01-30T05:13:43;102299.66;;;6.45;100.00
42587;BME280;28216;53.362;-6.288;2023-01-30T05:16:10;102304.75;;;6.47;100.00
42587;BME280;28216;53.362;-6.288;2023-01-30T05:18:35;102311.75;;;6.46;100.00
42587;BME280;28216;53.362;-6.288;2023-01-30T05:21:27;102300.59;;;6.44;100.00
42587;BME280;28216;53.362;-6.288;2023-01-30T05:23:54;102307.75;;;6.41;100.00
42587;BME280;28216;53.362;-6.288;2023-01-30T05:26:20;102313.88;;;6.40;100.00
42587;BME280;28216;53.362;-6.288;2023-01-30T05:28:54;102310.63;;;6.36;100.00
42587;BME280;28216;53.362;-6.288;2023-01-30T05:31:20;102312.59;;;6.32;100.00
42587;BME280;28216;53.362;-6.288;2023-01-30T05:33:47;102307.47;;;6.31;100.00
42587;BME280;28216;53.362;-6.288;2023-01-30T05:36:18;102303.19;;;6.30;100.00
42587;BME280;28216;53.362;-6.288;2023-01-30T05:38:44;102298.81;;;6.30;100.00
42587;BME280;28216;53.362;-6.288;2023-01-30T05:41:14;102293.63;;;6.30;100.00
42587;BME280;28216;53.362;-6.288;2023-01-30T05:43:40;102297.81;;;6.33;100.00
42587;BME280;28216;53.362;-6.288;2023-01-30T05:46:08;102295.09;;;6.34;100.00
42587;BME280;28216;53.362;-6.288;2023-01-30T05:48:34;102302.38;;;6.29;100.00
42587;BME280;28216;53.362;-6.288;2023-01-30T05:50:59;102295.66;;;6.25;100.00
42587;BME280;28216;53.362;-6.288;2023-01-30T05:53:31;102304.41;;;6.24;100.00
42587;BME280;28216;53.362;-6.288;2023-01-30T05:56:03;102305.63;;;6.19;100.00
42587;BME280;28216;53.362;-6.288;2023-01-30T05:58:30;102314.38;;;6.18;100.00
42587;BME280;28216;53.362;-6.288;2023-01-30T06:01:05;102312.03;;;6.13;100.00
42587;BME280;28216;53.362;-6.288;2023-01-30T06:03:31;102313.25;;;6.08;100.00
42587;BME280;28216;53.362;-6.288;2023-01-30T06:05:57;102324.03;;;6.01;100.00
42587;BME280;28216;53.362;-6.288;2023-01-30T06:08:22;102317.97;;;6.01;100.00
42587;BME280;28216;53.362;-6.288;2023-01-30T06:10:48;102331.75;;;6.03;100.00
42587;BME280;28216;53.362;-6.288;2023-01-30T06:13:13;102322.81;;;6.07;100.00
42587;BME280;28216;53.362;-6.288;2023-01-30T06:15:40;102320.13;;;6.09;100.00
42587;BME280;28216;53.362;-6.288;2023-01-30T06:18:06;102322.28;;;6.16;100.00
42587;BME280;28216;53.362;-6.288;2023-01-30T06:20:31;102322.38;;;6.15;100.00
42587;BME280;28216;53.362;-6.288;2023-01-30T06:22:57;102319.94;;;6.12;100.00
42587;BME280;28216;53.362;-6.288;2023-01-30T06:25:22;102327.84;;;6.10;100.00
42587;BME280;28216;53.362;-6.288;2023-01-30T06:27:48;102329.06;;;6.04;100.00
42587;BME280;28216;53.362;-6.288;2023-01-30T06:30:14;102332.78;;;6.00;100.00
42587;BME280;28216;53.362;-6.288;2023-01-30T06:32:40;102332.78;;;6.00;100.00
42587;BME280;28216;53.362;-6.288;2023-01-30T06:35:07;102346.91;;;5.96;100.00
42587;BME280;28216;53.362;-6.288;2023-01-30T06:37:32;102341.84;;;5.93;100.00
42587;BME280;28216;53.362;-6.288;2023-01-30T06:39:58;102342.16;;;5.87;100.00
42587;BME280;28216;53.362;-6.288;2023-01-30T06:42:28;102337.06;;;5.86;100.00
42587;BME280;28216;53.362;-6.288;2023-01-30T06:44:53;102333.63;;;5.85;100.00
42587;BME280;28216;53.362;-6.288;2023-01-30T06:47:19;102343.38;;;5.82;100.00
42587;BME280;28216;53.362;-6.288;2023-01-30T06:49:44;102340.09;;;5.78;100.00
42587;BME280;28216;53.362;-6.288;2023-01-30T06:52:10;102342.06;;;5.74;100.00
42587;BME280;28216;53.362;-6.288;2023-01-30T06:54:35;102344.00;;;5.71;100.00
42587;BME280;28216;53.362;-6.288;2023-01-30T06:57:01;102340.72;;;5.67;100.00
42587;BME280;28216;53.362;-6.288;2023-01-30T06:59:26;102344.69;;;5.59;100.00
42587;BME280;28216;53.362;-6.288;2023-01-30T07:01:52;102344.13;;;5.54;100.00
42587;BME280;28216;53.362;-6.288;2023-01-30T07:04:17;102342.63;;;5.50;100.00
42587;BME280;28216;53.362;-6.288;2023-01-30T07:06:43;102352.28;;;5.48;100.00
42587;BME280;28216;53.362;-6.288;2023-01-30T07:09:09;102362.94;;;5.43;100.00
42587;BME280;28216;53.362;-6.288;2023-01-30T07:11:34;102353.66;;;5.39;100.00
42587;BME280;28216;53.362;-6.288;2023-01-30T07:14:00;102363.13;;;5.40;100.00
42587;BME280;28216;53.362;-6.288;2023-01-30T07:16:25;102365.91;;;5.37;100.00
42587;BME280;28216;53.362;-6.288;2023-01-30T07:18:54;102370.25;;;5.36;100.00
42587;BME280;28216;53.362;-6.288;2023-01-30T07:21:22;102380.84;;;5.33;100.00
42587;BME280;28216;53.362;-6.288;2023-01-30T07:23:47;102382.59;;;5.33;100.00
42587;BME280;28216;53.362;-6.288;2023-01-30T07:26:13;102381.00;;;5.30;100.00
42587;BME280;28216;53.362;-6.288;2023-01-30T07:28:41;102387.13;;;5.29;100.00
42587;BME280;28216;53.362;-6.288;2023-01-30T07:31:06;102387.38;;;5.25;100.00
42587;BME280;28216;53.362;-6.288;2023-01-30T07:33:32;102389.16;;;5.24;100.00
42587;BME280;28216;53.362;-6.288;2023-01-30T07:35:57;102384.25;;;5.18;100.00
42587;BME280;28216;53.362;-6.288;2023-01-30T07:38:23;102394.84;;;5.15;100.00
42587;BME280;28216;53.362;-6.288;2023-01-30T07:40:50;102409.44;;;5.18;100.00
42587;BME280;28216;53.362;-6.288;2023-01-30T07:43:16;102409.34;;;5.19;100.00
42587;BME280;28216;53.362;-6.288;2023-01-30T07:45:45;102421.38;;;5.22;100.00
42587;BME280;28216;53.362;-6.288;2023-01-30T07:48:13;102423.13;;;5.21;100.00
42587;BME280;28216;53.362;-6.288;2023-01-30T07:50:39;102428.47;;;5.18;100.00
42587;BME280;28216;53.362;-6.288;2023-01-30T07:53:13;102428.38;;;5.20;100.00
42587;BME280;28216;53.362;-6.288;2023-01-30T07:55:39;102434.38;;;5.22;100.00
42587;BME280;28216;53.362;-6.288;2023-01-30T07:58:04;102435.34;;;5.19;100.00
42587;BME280;28216;53.362;-6.288;2023-01-30T08:00:33;102431.69;;;5.23;100.00
42587;BME280;28216;53.362;-6.288;2023-01-30T08:02:59;102441.59;;;5.32;100.00
42587;BME280;28216;53.362;-6.288;2023-01-30T08:05:25;102426.72;;;5.34;100.00
42587;BME280;28216;53.362;-6.288;2023-01-30T08:07:56;102433.78;;;5.32;100.00
42587;BME280;28216;53.362;-6.288;2023-01-30T08:10:22;102431.75;;;5.37;100.00
42587;BME280;28216;53.362;-6.288;2023-01-30T08:12:51;102429.66;;;5.44;100.00
42587;BME280;28216;53.362;-6.288;2023-01-30T08:15:17;102434.59;;;5.49;100.00
42587;BME280;28216;53.362;-6.288;2023-01-30T08:17:42;102441.41;;;5.51;100.00
42587;BME280;28216;53.362;-6.288;2023-01-30T08:20:10;102439.28;;;5.58;100.00
42587;BME280;28216;53.362;-6.288;2023-01-30T08:22:36;102433.75;;;5.64;100.00
42587;BME280;28216;53.362;-6.288;2023-01-30T08:25:04;102440.63;;;5.65;100.00
42587;BME280;28216;53.362;-6.288;2023-01-30T08:27:30;102448.34;;;5.66;100.00
42587;BME280;28216;53.362;-6.288;2023-01-30T08:29:55;102452.38;;;5.72;100.00
42587;BME280;28216;53.362;-6.288;2023-01-30T08:32:21;102437.69;;;5.71;100.00
42587;BME280;28216;53.362;-6.288;2023-01-30T08:35:12;102445.97;;;5.78;100.00
42587;BME280;28216;53.362;-6.288;2023-01-30T08:37:58;102439.19;;;5.75;100.00
42587;BME280;28216;53.362;-6.288;2023-01-30T08:40:33;102444.22;;;5.78;100.00
42587;BME280;28216;53.362;-6.288;2023-01-30T08:43:04;102433.06;;;5.76;100.00
42587;BME280;28216;53.362;-6.288;2023-01-30T08:45:32;102433.63;;;5.81;100.00
42587;BME280;28216;53.362;-6.288;2023-01-30T08:47:59;102429.75;;;5.88;100.00
42587;BME280;28216;53.362;-6.288;2023-01-30T08:50:25;102431.19;;;5.94;100.00
42587;BME280;28216;53.362;-6.288;2023-01-30T08:52:50;102428.44;;;5.97;100.00
42587;BME280;28216;53.362;-6.288;2023-01-30T08:55:16;102440.34;;;6.01;100.00
42587;BME280;28216;53.362;-6.288;2023-01-30T08:57:45;102435.06;;;6.02;100.00
42587;BME280;28216;53.362;-6.288;2023-01-30T09:00:14;102447.16;;;6.03;100.00
42587;BME280;28216;53.362;-6.288;2023-01-30T09:02:43;102455.72;;;6.05;100.00
42587;BME280;28216;53.362;-6.288;2023-01-30T09:05:08;102463.34;;;6.09;100.00
42587;BME280;28216;53.362;-6.288;2023-01-30T09:07:38;102459.25;;;6.04;100.00
42587;BME280;28216;53.362;-6.288;2023-01-30T09:10:15;102459.81;;;6.10;100.00
42587;BME280;28216;53.362;-6.288;2023-01-30T09:12:41;102461.41;;;6.12;100.00
42587;BME280;28216;53.362;-6.288;2023-01-30T09:15:07;102470.22;;;6.10;100.00
42587;BME280;28216;53.362;-6.288;2023-01-30T09:17:32;102467.38;;;6.14;100.00
42587;BME280;28216;53.362;-6.288;2023-01-30T09:19:58;102467.63;;;6.10;100.00
42587;BME280;28216;53.362;-6.288;2023-01-30T09:22:23;102477.13;;;6.11;100.00
42587;BME280;28216;53.362;-6.288;2023-01-30T09:28:29;102481.88;;;6.18;100.00
42587;BME280;28216;53.362;-6.288;2023-01-30T09:30:56;102477.59;;;6.17;100.00
42587;BME280;28216;53.362;-6.288;2023-01-30T09:33:22;102480.56;;;6.11;100.00
42587;BME280;28216;53.362;-6.288;2023-01-30T09:35:48;102481.22;;;6.15;100.00
42587;BME280;28216;53.362;-6.288;2023-01-30T09:38:14;102490.31;;;6.08;100.00
42587;BME280;28216;53.362;-6.288;2023-01-30T09:48:57;102499.19;;;6.19;100.00
42587;BME280;28216;53.362;-6.288;2023-01-30T09:51:29;102501.34;;;6.27;100.00
42587;BME280;28216;53.362;-6.288;2023-01-30T09:54:17;102499.31;;;6.32;100.00
42587;BME280;28216;53.362;-6.288;2023-01-30T09:57:00;102505.84;;;6.39;100.00
42587;BME280;28216;53.362;-6.288;2023-01-30T10:00:05;102508.53;;;6.37;100.00
42587;BME280;28216;53.362;-6.288;2023-01-30T10:02:40;102517.38;;;6.35;100.00
42587;BME280;28216;53.362;-6.288;2023-01-30T10:05:09;102524.44;;;6.33;100.00
42587;BME280;28216;53.362;-6.288;2023-01-30T10:08:02;102526.28;;;6.31;100.00
42587;BME280;28216;53.362;-6.288;2023-01-30T10:16:31;102535.25;;;6.41;100.00
42587;BME280;28216;53.362;-6.288;2023-01-30T10:24:46;102528.00;;;6.46;100.00
42587;BME280;28216;53.362;-6.288;2023-01-30T10:27:16;102535.25;;;6.41;100.00
42587;BME280;28216;53.362;-6.288;2023-01-30T10:30:03;102538.38;;;6.32;100.00
42587;BME280;28216;53.362;-6.288;2023-01-30T10:32:42;102544.53;;;6.31;100.00
42587;BME280;28216;53.362;-6.288;2023-01-30T10:35:30;102544.53;;;6.31;100.00
42587;BME280;28216;53.362;-6.288;2023-01-30T10:40:41;102556.81;;;6.29;100.00
42587;BME280;28216;53.362;-6.288;2023-01-30T10:51:17;102536.31;;;6.53;100.00
42587;BME280;28216;53.362;-6.288;2023-01-30T10:54:01;102534.75;;;6.64;100.00
42587;BME280;28216;53.362;-6.288;2023-01-30T10:59:12;102529.75;;;6.76;100.00
42587;BME280;28216;53.362;-6.288;2023-01-30T11:02:13;102525.13;;;6.81;100.00
42587;BME280;28216;53.362;-6.288;2023-01-30T11:04:46;102530.91;;;6.86;100.00
42587;BME280;28216;53.362;-6.288;2023-01-30T11:07:13;102524.56;;;6.90;100.00
42587;BME280;28216;53.362;-6.288;2023-01-30T11:09:41;102525.97;;;6.95;100.00
42587;BME280;28216;53.362;-6.288;2023-01-30T11:12:07;102532.47;;;7.03;100.00
42587;BME280;28216;53.362;-6.288;2023-01-30T11:14:50;102524.28;;;7.09;100.00
42587;BME280;28216;53.362;-6.288;2023-01-30T11:17:20;102527.63;;;7.25;100.00
42587;BME280;28216;53.362;-6.288;2023-01-30T11:19:54;102527.06;;;7.34;100.00
42587;BME280;28216;53.362;-6.288;2023-01-30T11:22:27;102538.25;;;7.36;100.00
42587;BME280;28216;53.362;-6.288;2023-01-30T11:25:18;102529.38;;;7.39;100.00
42587;BME280;28216;53.362;-6.288;2023-01-30T11:28:14;102529.03;;;7.45;100.00
42587;BME280;28216;53.362;-6.288;2023-01-30T11:30:51;102538.81;;;7.55;100.00
42587;BME280;28216;53.362;-6.288;2023-01-30T11:33:19;102535.91;;;7.60;100.00
42587;BME280;28216;53.362;-6.288;2023-01-30T11:35:59;102540.84;;;7.64;100.00
42587;BME280;28216;53.362;-6.288;2023-01-30T11:38:28;102539.31;;;7.75;100.00
42587;BME280;28216;53.362;-6.288;2023-01-30T11:41:09;102545.09;;;7.80;100.00
42587;BME280;28216;53.362;-6.288;2023-01-30T11:43:48;102540.59;;;7.82;100.00
42587;BME280;28216;53.362;-6.288;2023-01-30T11:46:17;102540.53;;;7.69;100.00
42587;BME280;28216;53.362;-6.288;2023-01-30T11:49:00;102540.53;;;7.69;100.00
42587;BME280;28216;53.362;-6.288;2023-01-30T11:51:28;102544.28;;;7.65;100.00
42587;BME280;28216;53.362;-6.288;2023-01-30T11:54:06;102535.81;;;7.61;100.00
42587;BME280;28216;53.362;-6.288;2023-01-30T11:59:15;102538.97;;;7.67;100.00
42587;BME280;28216;53.362;-6.288;2023-01-30T12:01:46;102539.03;;;7.79;100.00
42587;BME280;28216;53.362;-6.288;2023-01-30T12:04:12;102547.50;;;7.83;100.00
42587;BME280;28216;53.362;-6.288;2023-01-30T12:06:40;102547.22;;;7.87;100.00
42587;BME280;28216;53.362;-6.288;2023-01-30T12:09:36;102542.91;;;7.86;100.00
42587;BME280;28216;53.362;-6.288;2023-01-30T12:12:18;102538.63;;;7.85;100.00
42587;BME280;28216;53.362;-6.288;2023-01-30T12:14:49;102543.94;;;7.84;100.00
42587;BME280;28216;53.362;-6.288;2023-01-30T12:17:21;102540.16;;;7.75;100.00
42587;BME280;28216;53.362;-6.288;2023-01-30T12:22:40;102535.78;;;7.76;100.00
42587;BME280;28216;53.362;-6.288;2023-01-30T12:25:18;102539.75;;;7.81;100.00
42587;BME280;28216;53.362;-6.288;2023-01-30T12:30:24;102535.31;;;7.96;100.00
42587;BME280;28216;53.362;-6.288;2023-01-30T12:32:57;102530.94;;;7.96;100.00
42587;BME280;28216;53.362;-6.288;2023-01-30T12:35:55;102535.03;;;8.01;100.00
42587;BME280;28216;53.362;-6.288;2023-01-30T12:44:25;102543.91;;;7.98;100.00
42587;BME280;28216;53.362;-6.288;2023-01-30T12:56:16;102518.56;;;8.40;100.00
42587;BME280;28216;53.362;-6.288;2023-01-30T13:02:01;102512.94;;;8.58;100.00
42587;BME280;28216;53.362;-6.288;2023-01-30T13:04:40;102518.69;;;8.64;100.00
42587;BME280;28216;53.362;-6.288;2023-01-30T13:07:17;102512.22;;;8.69;100.00
42587;BME280;28216;53.362;-6.288;2023-01-30T13:12:39;102515.03;;;8.79;100.00
42587;BME280;28216;53.362;-6.288;2023-01-30T13:21:12;102510.97;;;8.87;100.00
42587;BME280;28216;53.362;-6.288;2023-01-30T13:26:18;102522.25;;;8.88;100.00
42587;BME280;28216;53.362;-6.288;2023-01-30T13:28:50;102511.28;;;8.83;100.00
42587;BME280;28216;53.362;-6.288;2023-01-30T13:31:31;102507.72;;;8.84;100.00
42587;BME280;28216;53.362;-6.288;2023-01-30T13:34:12;102503.44;;;8.83;100.00
42587;BME280;28216;53.362;-6.288;2023-01-30T13:36:53;102507.94;;;8.81;99.74
42587;BME280;28216;53.362;-6.288;2023-01-30T13:39:49;102511.06;;;8.86;99.07
42587;BME280;28216;53.362;-6.288;2023-01-30T13:42:39;102512.84;;;8.85;98.91
42587;BME280;28216;53.362;-6.288;2023-01-30T13:45:16;102514.41;;;8.88;98.24
42587;BME280;28216;53.362;-6.288;2023-01-30T13:50:54;102503.34;;;8.97;97.72
42587;BME280;28216;53.362;-6.288;2023-01-30T13:53:45;102509.94;;;9.03;96.52
42587;BME280;28216;53.362;-6.288;2023-01-30T14:02:25;102488.38;;;9.12;95.86
42587;BME280;28216;53.362;-6.288;2023-01-30T14:04:54;102482.47;;;9.21;95.80
42587;BME280;28216;53.362;-6.288;2023-01-30T14:12:40;102474.84;;;9.18;94.47
42587;BME280;28216;53.362;-6.288;2023-01-30T14:18:06;102467.94;;;9.17;93.44
42587;BME280;28216;53.362;-6.288;2023-01-30T14:20:48;102469.19;;;9.24;94.27
42587;BME280;28216;53.362;-6.288;2023-01-30T14:23:19;102477.97;;;9.23;94.18
42587;BME280;28216;53.362;-6.288;2023-01-30T14:25:51;102482.69;;;9.18;93.51
42587;BME280;28216;53.362;-6.288;2023-01-30T14:30:48;102480.59;;;9.23;94.05
42587;BME280;28216;53.362;-6.288;2023-01-30T14:33:32;102481.09;;;9.28;94.36
42587;BME280;28216;53.362;-6.288;2023-01-30T14:42:18;102473.03;;;9.31;94.48
42587;BME280;28216;53.362;-6.288;2023-01-30T14:47:27;102482.34;;;9.35;95.72
42587;BME280;28216;53.362;-6.288;2023-01-30T14:49:54;102484.34;;;9.32;95.60
42587;BME280;28216;53.362;-6.288;2023-01-30T14:52:33;102490.94;;;9.24;95.17
42587;BME280;28216;53.362;-6.288;2023-01-30T14:55:01;102489.50;;;9.20;95.42
42587;BME280;28216;53.362;-6.288;2023-01-30T14:57:27;102499.13;;;9.20;95.29
42587;BME280;28216;53.362;-6.288;2023-01-30T15:00:03;102489.94;;;9.14;95.14
42587;BME280;28216;53.362;-6.288;2023-01-30T15:02:40;102489.72;;;9.17;95.04
42587;BME280;28216;53.362;-6.288;2023-01-30T15:05:17;102502.78;;;9.17;95.10
42587;BME280;28216;53.362;-6.288;2023-01-30T15:07:55;102500.38;;;9.14;94.89
42587;BME280;28216;53.362;-6.288;2023-01-30T15:16:58;102497.47;;;9.06;95.00